Time;durP1;ratioP1;P1;durP2;ratioP2;P2;SDS_P1;SDS_P2;PMS_P1;PMS_P2;Temp;Humidity;BMP_temperature;BMP_pressure;BME280_temperature;BME280_humidity;BME280_pressure;Samples;Min_cycle;Max_cycle;Signal;HPM_P1;HPM_P2
2022/10/09 00:01:10;;;;;;;;;;;;;;;63.81;0.76;101162.38;5072331;27;19950;-62
2022/10/09 00:03:38;;;;;;;;;;;;;;;64.10;0.78;101164.25;5049053;28;20022;-63
2022/10/09 00:06:05;;;;;;;;;;;;;;;66.01;0.53;101161.41;5048959;28;20254;-63
2022/10/09 00:08:34;;;;;;;;;;;;;;;64.80;0.55;101167.34;5049122;28;20019;-63
2022/10/09 00:11:03;;;;;;;;;;;;;;;63.90;0.95;101164.44;5049087;28;19964;-63
2022/10/09 00:13:30;;;;;;;;;;;;;;;63.53;1.55;101163.38;5047762;28;19920;-63
2022/10/09 00:15:56;;;;;;;;;;;;;;;61.83;1.57;101158.41;5049085;28;20254;-63
2022/10/09 00:18:22;;;;;;;;;;;;;;;60.22;2.04;101163.22;5049014;28;19960;-63
2022/10/09 00:20:49;;;;;;;;;;;;;;;58.33;2.94;101167.97;5048950;28;20354;-63
2022/10/09 00:23:16;;;;;;;;;;;;;;;58.66;3.14;101168.78;5048840;28;19928;-63
2022/10/09 00:25:52;;;;;;;;;;;;;;;56.69;4.50;101170.66;5048769;28;19927;-62
2022/10/09 00:28:19;;;;;;;;;;;;;;;56.43;4.05;101170.97;5048440;28;19923;-63
2022/10/09 00:30:45;;;;;;;;;;;;;;;56.69;4.12;101175.72;5048846;28;19920;-62
2022/10/09 00:33:12;;;;;;;;;;;;;;;56.82;3.36;101176.38;5047920;28;20263;-62
2022/10/09 00:35:38;;;;;;;;;;;;;;;57.86;3.42;101177.53;5048807;28;19917;-62
2022/10/09 00:38:05;;;;;;;;;;;;;;;57.64;4.00;101181.25;5048548;28;20378;-62
2022/10/09 00:40:31;;;;;;;;;;;;;;;56.68;3.93;101180.00;5051396;28;19962;-62
2022/10/09 00:42:58;;;;;;;;;;;;;;;57.04;4.59;101166.03;5090420;28;19926;-63
2022/10/09 00:45:24;;;;;;;;;;;;;;;54.92;5.01;101180.94;5108697;28;19919;-62
2022/10/09 00:47:53;;;;;;;;;;;;;;;54.54;5.23;101179.16;5089832;27;19980;-62
2022/10/09 00:50:25;;;;;;;;;;;;;;;52.98;6.06;101179.28;5051978;28;19917;-62
2022/10/09 00:52:53;;;;;;;;;;;;;;;53.60;5.48;101182.69;5073286;27;20409;-61
2022/10/09 00:55:21;;;;;;;;;;;;;;;53.97;6.09;101184.63;5089702;27;20489;-62
2022/10/09 00:57:47;;;;;;;;;;;;;;;53.94;5.99;101185.75;5081240;27;19921;-61
2022/10/09 01:00:14;;;;;;;;;;;;;;;52.79;5.95;101188.81;5076401;27;19928;-62
2022/10/09 01:02:40;;;;;;;;;;;;;;;53.06;5.70;101188.91;5096122;27;20010;-61
2022/10/09 01:05:08;;;;;;;;;;;;;;;52.98;6.30;101187.97;5063423;27;20012;-61
2022/10/09 01:07:37;;;;;;;;;;;;;;;51.96;6.69;101196.44;5075055;27;19929;-62
2022/10/09 01:10:03;;;;;;;;;;;;;;;52.37;7.04;101192.56;5073789;27;20481;-62
2022/10/09 01:12:39;;;;;;;;;;;;;;;52.51;6.79;101197.09;5087957;27;19917;-62
2022/10/09 01:15:22;;;;;;;;;;;;;;;52.48;6.37;101186.59;5100980;27;19920;-62
2022/10/09 01:18:07;;;;;;;;;;;;;;;51.91;6.85;101191.50;5087204;27;19924;-62
2022/10/09 01:20:46;;;;;;;;;;;;;;;51.37;7.25;101201.00;5072340;27;19925;-63
2022/10/09 01:23:27;;;;;;;;;;;;;;;51.79;7.25;101195.84;5049689;27;19921;-62
2022/10/09 01:26:01;;;;;;;;;;;;;;;52.07;6.41;101202.16;5050470;28;19924;-60
2022/10/09 01:28:29;;;;;;;;;;;;;;;51.92;7.25;101207.56;5085110;27;20019;-61
2022/10/09 01:31:00;;;;;;;;;;;;;;;51.97;7.16;101206.72;5094723;27;20400;-61
2022/10/09 01:33:28;;;;;;;;;;;;;;;51.96;7.30;101210.94;5097685;27;20296;-61
2022/10/09 01:35:54;;;;;;;;;;;;;;;51.86;6.52;101212.63;5115004;27;19919;-62
2022/10/09 01:38:22;;;;;;;;;;;;;;;51.63;7.08;101214.97;5118491;27;19919;-62
2022/10/09 01:40:49;;;;;;;;;;;;;;;51.68;7.34;101212.00;5135754;27;19916;-62
2022/10/09 01:43:15;;;;;;;;;;;;;;;51.58;7.06;101213.69;5091042;27;19915;-61
2022/10/09 01:45:43;;;;;;;;;;;;;;;51.47;7.18;101222.50;5097478;27;19923;-62
2022/10/09 01:48:13;;;;;;;;;;;;;;;51.20;7.13;101220.59;5062652;27;19921;-61
2022/10/09 01:50:52;;;;;;;;;;;;;;;51.00;7.40;101227.56;5051629;28;19921;-61
2022/10/09 01:53:20;;;;;;;;;;;;;;;51.21;7.39;101227.97;5051043;28;20018;-61
2022/10/09 01:55:54;;;;;;;;;;;;;;;51.22;6.91;101224.53;5051336;28;19936;-61
2022/10/09 01:58:34;;;;;;;;;;;;;;;50.77;7.17;101235.59;5049415;28;19966;-61
2022/10/09 02:01:07;;;;;;;;;;;;;;;51.02;6.82;101233.63;5073801;27;19928;-62
2022/10/09 02:03:34;;;;;;;;;;;;;;;50.98;6.87;101233.88;5050962;28;19925;-61
2022/10/09 02:06:02;;;;;;;;;;;;;;;50.94;7.52;101244.19;5062713;27;19916;-62
2022/10/09 02:08:30;;;;;;;;;;;;;;;50.89;7.17;101242.91;5097108;27;19921;-62
2022/10/09 02:10:57;;;;;;;;;;;;;;;50.91;7.41;101243.16;5035219;27;19920;-61
2022/10/09 02:13:23;;;;;;;;;;;;;;;50.92;7.05;101249.72;5071928;27;19921;-61
2022/10/09 02:15:49;;;;;;;;;;;;;;;50.89;7.57;101260.28;5085688;27;19968;-62
2022/10/09 02:18:20;;;;;;;;;;;;;;;50.78;7.85;101257.44;5050731;28;19928;-61
2022/10/09 02:20:49;;;;;;;;;;;;;;;50.67;7.23;101257.50;5100865;27;19927;-61
2022/10/09 02:23:17;;;;;;;;;;;;;;;49.97;8.06;101262.41;5133974;27;19919;-61
2022/10/09 02:25:43;;;;;;;;;;;;;;;49.24;8.88;101264.50;5113349;27;19919;-61
2022/10/09 02:28:10;;;;;;;;;;;;;;;49.67;8.74;101265.06;5095308;27;19921;-61
2022/10/09 02:30:45;;;;;;;;;;;;;;;49.80;8.71;101261.66;5050638;28;19981;-61
2022/10/09 02:33:11;;;;;;;;;;;;;;;49.35;9.11;101269.50;5070869;27;19926;-61
2022/10/09 02:35:38;;;;;;;;;;;;;;;49.21;9.13;101263.44;5052999;27;19921;-62
2022/10/09 02:38:04;;;;;;;;;;;;;;;49.10;8.47;101274.97;5058489;27;19924;-61
2022/10/09 02:40:30;;;;;;;;;;;;;;;49.08;9.52;101271.81;5135029;27;19920;-62
2022/10/09 02:42:57;;;;;;;;;;;;;;;49.61;8.96;101270.84;5127822;27;19963;-62
2022/10/09 02:45:23;;;;;;;;;;;;;;;48.64;9.21;101261.69;5050087;28;19933;-63
2022/10/09 02:47:50;;;;;;;;;;;;;;;48.85;9.68;101264.41;5052979;28;19921;-62
2022/10/09 02:50:16;;;;;;;;;;;;;;;48.66;9.28;101269.81;5050209;28;19924;-61
2022/10/09 02:52:42;;;;;;;;;;;;;;;49.21;9.25;101272.13;5050221;28;20290;-61
2022/10/09 02:55:08;;;;;;;;;;;;;;;48.97;9.21;101272.56;5050082;28;20015;-62
2022/10/09 02:57:35;;;;;;;;;;;;;;;49.09;9.65;101278.38;5050036;28;19932;-61
2022/10/09 03:00:01;;;;;;;;;;;;;;;49.68;8.72;101268.75;5049225;28;19917;-61
2022/10/09 03:02:27;;;;;;;;;;;;;;;49.41;9.33;101273.22;5050100;28;19927;-61
2022/10/09 03:04:54;;;;;;;;;;;;;;;48.83;9.37;101276.44;5049992;28;19921;-62
2022/10/09 03:07:20;;;;;;;;;;;;;;;48.95;9.47;101271.53;5049984;28;19921;-62
2022/10/09 03:09:46;;;;;;;;;;;;;;;48.93;9.46;101274.13;5049397;28;19921;-61
2022/10/09 03:12:14;;;;;;;;;;;;;;;48.61;9.43;101279.25;5050007;28;19927;-61
2022/10/09 03:14:41;;;;;;;;;;;;;;;49.42;9.20;101287.13;5049667;28;19921;-61
2022/10/09 03:17:07;;;;;;;;;;;;;;;49.16;9.49;101278.66;5049874;28;19927;-61
2022/10/09 03:19:33;;;;;;;;;;;;;;;49.25;9.45;101284.19;5049591;28;19917;-61
2022/10/09 03:21:59;;;;;;;;;;;;;;;49.24;9.34;101288.41;5049778;28;20390;-61
2022/10/09 03:24:26;;;;;;;;;;;;;;;49.16;9.28;101295.97;5049472;28;20282;-62
2022/10/09 03:26:52;;;;;;;;;;;;;;;49.57;8.91;101286.88;5049518;28;19920;-64
2022/10/09 03:29:18;;;;;;;;;;;;;;;49.80;8.64;101294.25;5064946;27;19940;-63
2022/10/09 03:31:45;;;;;;;;;;;;;;;49.22;9.14;101293.13;5110183;27;19915;-62
2022/10/09 03:34:11;;;;;;;;;;;;;;;48.96;9.31;101293.31;5133450;27;20353;-62
2022/10/09 03:36:37;;;;;;;;;;;;;;;49.34;9.27;101297.59;5133613;27;19919;-63
2022/10/09 03:39:03;;;;;;;;;;;;;;;49.62;9.00;101294.75;5133451;27;19912;-62
2022/10/09 03:41:30;;;;;;;;;;;;;;;49.11;9.61;101302.53;5133526;27;19924;-62
2022/10/09 03:43:56;;;;;;;;;;;;;;;49.24;9.23;101299.94;5120703;27;19968;-62
2022/10/09 03:46:22;;;;;;;;;;;;;;;49.54;9.04;101303.13;5133382;27;20345;-63
2022/10/09 03:48:48;;;;;;;;;;;;;;;49.46;9.10;101302.09;5088464;27;19920;-63
2022/10/09 03:51:14;;;;;;;;;;;;;;;49.21;9.51;101309.66;5049356;28;20015;-62
2022/10/09 03:53:41;;;;;;;;;;;;;;;49.50;9.20;101311.28;5049469;27;19968;-62
2022/10/09 03:56:07;;;;;;;;;;;;;;;49.67;8.82;101314.22;5049306;28;19916;-62
2022/10/09 03:58:33;;;;;;;;;;;;;;;49.66;9.21;101317.63;5051247;28;19917;-62
2022/10/09 04:00:59;;;;;;;;;;;;;;;49.69;9.52;101305.00;5056621;28;19924;-62
2022/10/09 04:03:26;;;;;;;;;;;;;;;49.82;9.10;101303.16;5063208;28;19912;-62
2022/10/09 04:05:52;;;;;;;;;;;;;;;49.81;9.20;101313.16;5056890;27;19960;-60
2022/10/09 04:08:19;;;;;;;;;;;;;;;49.74;9.12;101310.81;5128033;28;19924;-62
2022/10/09 04:10:54;;;;;;;;;;;;;;;49.79;9.15;101320.78;5084381;27;20005;-62
2022/10/09 04:13:21;;;;;;;;;;;;;;;49.71;8.68;101322.63;5049616;28;20015;-62
2022/10/09 04:15:50;;;;;;;;;;;;;;;49.71;9.26;101314.72;5048137;28;19920;-61
2022/10/09 04:18:17;;;;;;;;;;;;;;;49.77;9.33;101327.09;5049516;28;19967;-62
2022/10/09 04:20:53;;;;;;;;;;;;;;;49.80;9.32;101320.25;5049553;27;20327;-61
2022/10/09 04:23:21;;;;;;;;;;;;;;;49.69;9.39;101326.03;5051971;28;19924;-62
2022/10/09 04:25:51;;;;;;;;;;;;;;;49.61;8.75;101324.97;5052808;28;19973;-62
2022/10/09 04:28:18;;;;;;;;;;;;;;;49.45;9.47;101325.75;5052136;28;20290;-65
2022/10/09 04:30:44;;;;;;;;;;;;;;;49.46;9.28;101318.66;5052779;28;19921;-61
2022/10/09 04:33:10;;;;;;;;;;;;;;;49.40;9.05;101320.75;5052789;28;19931;-62
2022/10/09 04:35:40;;;;;;;;;;;;;;;49.34;9.21;101329.38;5052107;28;19998;-62
2022/10/09 04:38:06;;;;;;;;;;;;;;;49.22;9.43;101319.91;5051685;28;20313;-61
2022/10/09 04:40:33;;;;;;;;;;;;;;;49.16;9.25;101327.75;5052518;28;19917;-62
2022/10/09 04:42:59;;;;;;;;;;;;;;;49.14;9.77;101326.69;5051623;28;20028;-61
2022/10/09 04:45:25;;;;;;;;;;;;;;;49.12;9.54;101324.31;5052399;28;19917;-61
2022/10/09 04:47:52;;;;;;;;;;;;;;;49.13;9.55;101328.78;5052203;28;20011;-61
2022/10/09 04:50:18;;;;;;;;;;;;;;;49.20;9.33;101328.31;5052233;28;19917;-61
2022/10/09 04:52:56;;;;;;;;;;;;;;;49.23;9.47;101333.03;5052199;28;20007;-61
2022/10/09 04:55:22;;;;;;;;;;;;;;;49.37;9.08;101339.09;5052600;28;19973;-61
2022/10/09 04:57:48;;;;;;;;;;;;;;;49.46;8.79;101344.66;5051321;28;19948;-62
2022/10/09 05:00:15;;;;;;;;;;;;;;;49.60;9.45;101343.63;5049742;28;19925;-61
2022/10/09 05:02:41;;;;;;;;;;;;;;;49.63;9.37;101341.78;5050148;28;20003;-61
2022/10/09 05:05:07;;;;;;;;;;;;;;;49.63;8.88;101341.78;5050139;28;20333;-61
2022/10/09 05:07:34;;;;;;;;;;;;;;;49.50;9.06;101343.06;5050130;28;19917;-61
2022/10/09 05:10:00;;;;;;;;;;;;;;;49.61;9.30;101339.41;5050282;28;19921;-62
2022/10/09 05:12:26;;;;;;;;;;;;;;;49.64;9.39;101338.34;5050665;28;20302;-62
2022/10/09 05:14:52;;;;;;;;;;;;;;;49.61;9.39;101337.31;5050553;28;20007;-62
2022/10/09 05:17:19;;;;;;;;;;;;;;;49.58;9.22;101335.47;5051931;28;19977;-61
2022/10/09 05:19:45;;;;;;;;;;;;;;;49.49;8.99;101341.50;5051793;28;20009;-61
2022/10/09 05:22:11;;;;;;;;;;;;;;;49.46;9.22;101335.97;5051612;28;19969;-61
2022/10/09 05:24:38;;;;;;;;;;;;;;;49.30;9.26;101338.31;5051359;28;20390;-61
2022/10/09 05:27:04;;;;;;;;;;;;;;;49.18;9.68;101342.44;5051872;28;19936;-63
2022/10/09 05:29:32;;;;;;;;;;;;;;;49.09;9.98;101354.25;5049812;28;19990;-62
2022/10/09 05:31:58;;;;;;;;;;;;;;;49.18;9.49;101354.00;5051726;28;19920;-64
2022/10/09 05:34:24;;;;;;;;;;;;;;;49.07;9.70;101359.75;5051634;28;19931;-61
2022/10/09 05:36:50;;;;;;;;;;;;;;;49.06;9.59;101354.50;5051560;28;19917;-61
2022/10/09 05:39:17;;;;;;;;;;;;;;;49.04;9.76;101355.03;5051919;28;19921;-62
2022/10/09 05:41:43;;;;;;;;;;;;;;;49.15;9.43;101366.59;5052139;28;19960;-62
2022/10/09 05:44:10;;;;;;;;;;;;;;;49.28;9.93;101372.69;5051050;28;20388;-62
2022/10/09 05:46:36;;;;;;;;;;;;;;;49.34;9.59;101383.47;5049729;28;19916;-62
2022/10/09 05:49:06;;;;;;;;;;;;;;;48.77;9.99;101410.50;5049645;28;19925;-62
2022/10/09 05:51:35;;;;;;;;;;;;;;;47.96;10.79;101421.16;5049981;28;20390;-62
2022/10/09 05:54:01;;;;;;;;;;;;;;;46.12;12.85;101444.44;5049431;28;19960;-62
2022/10/09 05:56:29;;;;;;;;;;;;;;;45.76;13.48;101447.19;5049835;28;19921;-62
2022/10/09 05:58:57;;;;;;;;;;;;;;;46.56;13.01;101435.81;5049156;28;19924;-61
2022/10/09 06:01:25;;;;;;;;;;;;;;;46.99;13.04;101439.06;5051479;28;19925;-61
2022/10/09 06:03:52;;;;;;;;;;;;;;;47.48;12.85;101432.38;5051572;28;20346;-61
2022/10/09 06:06:19;;;;;;;;;;;;;;;46.97;13.23;101433.81;5051456;28;19928;-62
2022/10/09 06:08:46;;;;;;;;;;;;;;;46.32;13.49;101439.56;5051007;28;20426;-63
2022/10/09 06:11:13;;;;;;;;;;;;;;;45.51;14.73;101435.44;5051358;28;20367;-62
2022/10/09 06:13:40;;;;;;;;;;;;;;;45.31;14.27;101438.94;5051158;28;19924;-62
2022/10/09 06:16:06;;;;;;;;;;;;;;;46.36;13.93;101434.44;5051234;28;20339;-62
2022/10/09 06:18:33;;;;;;;;;;;;;;;46.86;13.44;101437.34;5051091;28;19928;-62
2022/10/09 06:21:00;;;;;;;;;;;;;;;46.36;13.46;101428.69;5049900;28;19917;-62
2022/10/09 06:23:27;;;;;;;;;;;;;;;45.90;13.71;101433.31;5050976;28;20302;-63
2022/10/09 06:25:57;;;;;;;;;;;;;;;46.54;13.80;101438.41;5051284;28;20374;-61
2022/10/09 06:28:24;;;;;;;;;;;;;;;45.38;14.48;101429.94;5050046;28;20366;-61
2022/10/09 06:30:50;;;;;;;;;;;;;;;46.26;14.14;101427.19;5050811;28;20415;-62
2022/10/09 06:33:16;;;;;;;;;;;;;;;45.92;14.10;101430.75;5050923;28;19928;-61
2022/10/09 06:35:42;;;;;;;;;;;;;;;45.44;14.70;101439.50;5050505;27;20011;-62
2022/10/09 06:38:09;;;;;;;;;;;;;;;44.54;15.81;101457.53;5050756;28;20016;-61
2022/10/09 06:40:36;;;;;;;;;;;;;;;44.01;16.07;101460.00;5051313;28;19981;-62
2022/10/09 06:43:03;;;;;;;;;;;;;;;43.47;16.96;101463.66;5050764;28;19929;-62
2022/10/09 06:45:30;;;;;;;;;;;;;;;44.68;15.56;101461.75;5050195;28;19948;-62
2022/10/09 06:47:56;;;;;;;;;;;;;;;43.52;16.45;101457.31;5050742;28;19955;-62
2022/10/09 06:50:23;;;;;;;;;;;;;;;42.65;17.29;101459.28;5050817;28;19921;-63
2022/10/09 06:52:49;;;;;;;;;;;;;;;44.31;15.67;101444.66;5050542;28;19921;-61
2022/10/09 06:55:15;;;;;;;;;;;;;;;44.96;14.71;101444.41;5050527;28;19925;-61
2022/10/09 06:57:41;;;;;;;;;;;;;;;44.71;15.02;101451.38;5050789;28;19920;-61
2022/10/09 07:00:08;;;;;;;;;;;;;;;43.67;15.93;101443.94;5049637;28;19921;-62
2022/10/09 07:02:36;;;;;;;;;;;;;;;44.27;15.16;101446.09;5050448;28;19944;-62
2022/10/09 07:05:02;;;;;;;;;;;;;;;44.00;15.66;101438.38;5050477;28;20473;-61
2022/10/09 07:07:28;;;;;;;;;;;;;;;43.89;15.64;101433.13;5050345;28;19921;-62
2022/10/09 07:09:54;;;;;;;;;;;;;;;44.44;14.98;101430.13;5050278;28;19995;-62
2022/10/09 07:12:21;;;;;;;;;;;;;;;43.52;16.10;101425.81;5050435;28;19917;-63
2022/10/09 07:14:47;;;;;;;;;;;;;;;43.90;15.96;101428.97;5050278;27;20382;-62
2022/10/09 07:17:13;;;;;;;;;;;;;;;44.80;14.94;101411.16;5050344;28;19972;-62
2022/10/09 07:19:39;;;;;;;;;;;;;;;44.72;15.01;101412.81;5050239;28;20381;-62
2022/10/09 07:22:10;;;;;;;;;;;;;;;44.09;15.48;101411.78;5050550;28;20375;-62
2022/10/09 07:24:36;;;;;;;;;;;;;;;43.39;16.28;101411.66;5050133;27;20360;-62
2022/10/09 07:27:02;;;;;;;;;;;;;;;44.31;15.60;101412.31;5050053;28;19924;-61
2022/10/09 07:29:29;;;;;;;;;;;;;;;44.54;15.25;101413.72;5047881;28;19973;-61
2022/10/09 07:31:55;;;;;;;;;;;;;;;44.65;14.85;101404.56;5050122;28;19917;-62
2022/10/09 07:34:22;;;;;;;;;;;;;;;45.20;14.09;101399.28;5050072;28;19920;-61
2022/10/09 07:36:48;;;;;;;;;;;;;;;45.06;14.43;101400.81;5049860;28;19913;-62
2022/10/09 07:39:15;;;;;;;;;;;;;;;44.68;15.01;101401.50;5049698;28;19956;-62
2022/10/09 07:41:42;;;;;;;;;;;;;;;43.63;15.44;101400.34;5050012;28;19971;-62
2022/10/09 07:44:09;;;;;;;;;;;;;;;44.38;14.96;101394.81;5049836;28;19916;-61
2022/10/09 07:46:35;;;;;;;;;;;;;;;44.76;14.28;101396.22;5049926;28;20099;-62
2022/10/09 07:49:02;;;;;;;;;;;;;;;44.29;15.13;101391.97;5049785;28;19920;-61
2022/10/09 07:51:28;;;;;;;;;;;;;;;44.67;14.32;101393.41;5049789;28;19956;-62
2022/10/09 07:53:56;;;;;;;;;;;;;;;45.15;14.23;101389.28;5049832;28;19974;-62
2022/10/09 07:56:27;;;;;;;;;;;;;;;44.15;14.60;101381.97;5048692;28;20009;-61
2022/10/09 07:58:54;;;;;;;;;;;;;;;44.91;13.81;101379.91;5049118;28;19931;-61
2022/10/09 08:01:21;;;;;;;;;;;;;;;44.94;13.62;101384.66;5049880;28;19993;-61
2022/10/09 08:03:48;;;;;;;;;;;;;;;44.66;14.25;101375.41;5049675;28;20008;-62
2022/10/09 08:06:14;;;;;;;;;;;;;;;44.98;14.12;101367.25;5042169;28;19921;-62
2022/10/09 08:08:41;;;;;;;;;;;;;;;45.55;13.50;101367.91;5028502;28;19964;-62
2022/10/09 08:11:08;;;;;;;;;;;;;;;45.19;13.20;101361.16;5030064;28;19917;-62
2022/10/09 08:13:35;;;;;;;;;;;;;;;44.38;14.10;101369.00;5030022;28;20007;-62
2022/10/09 08:16:04;;;;;;;;;;;;;;;44.43;13.63;101358.94;5030113;28;19917;-61
2022/10/09 08:18:30;;;;;;;;;;;;;;;44.64;13.38;101354.22;5029962;28;19921;-62
2022/10/09 08:20:57;;;;;;;;;;;;;;;44.96;12.87;101358.34;5029818;28;19917;-62
2022/10/09 08:23:24;;;;;;;;;;;;;;;45.54;12.97;101354.81;5029719;28;19921;-62
2022/10/09 08:25:50;;;;;;;;;;;;;;;45.74;12.25;101352.09;5029824;28;19927;-62
2022/10/09 08:28:16;;;;;;;;;;;;;;;45.80;12.44;101352.19;5032703;28;19973;-62
2022/10/09 08:30:42;;;;;;;;;;;;;;;46.11;11.84;101353.75;5049558;28;19921;-62
2022/10/09 08:33:09;;;;;;;;;;;;;;;45.16;12.89;101349.88;5049379;28;20020;-62
2022/10/09 08:35:35;;;;;;;;;;;;;;;46.12;12.30;101352.47;5049543;28;20370;-62
2022/10/09 08:38:01;;;;;;;;;;;;;;;45.98;12.28;101348.31;5048183;28;19920;-62
2022/10/09 08:40:46;;;;;;;;;;;;;;;45.65;11.72;101357.94;5049550;28;19969;-62
2022/10/09 08:43:14;;;;;;;;;;;;;;;46.17;11.66;101363.28;5049357;28;19927;-62
2022/10/09 08:45:42;;;;;;;;;;;;;;;46.56;11.08;101370.44;5049331;28;19917;-62
2022/10/09 08:48:15;;;;;;;;;;;;;;;46.44;11.17;101367.91;5049365;27;19964;-62
2022/10/09 08:50:46;;;;;;;;;;;;;;;46.61;10.99;101371.81;5048242;28;19960;-62
2022/10/09 08:53:33;;;;;;;;;;;;;;;46.29;11.17;101365.81;5049327;28;19974;-62
2022/10/09 08:56:00;;;;;;;;;;;;;;;46.64;10.88;101373.69;5049363;28;19921;-63
2022/10/09 08:58:32;;;;;;;;;;;;;;;46.76;10.59;101363.94;5047159;28;20343;-62
2022/10/09 09:01:14;;;;;;;;;;;;;;;46.78;11.17;101367.09;5049236;28;19924;-62
2022/10/09 09:03:58;;;;;;;;;;;;;;;46.77;11.01;101358.97;5049304;28;19944;-62
2022/10/09 09:06:39;;;;;;;;;;;;;;;45.78;11.58;101360.50;5049042;28;19928;-62
2022/10/09 09:09:06;;;;;;;;;;;;;;;46.65;11.66;101358.00;5051576;28;19968;-62
2022/10/09 09:11:37;;;;;;;;;;;;;;;46.12;12.35;101355.34;5052506;28;19913;-63
2022/10/09 09:14:12;;;;;;;;;;;;;;;46.06;12.55;101358.94;5052496;28;19978;-62
2022/10/09 09:16:56;;;;;;;;;;;;;;;45.60;13.28;101352.84;5052447;28;19917;-62
2022/10/09 09:19:31;;;;;;;;;;;;;;;44.91;14.10;101356.94;5052377;28;19920;-62
2022/10/09 09:21:58;;;;;;;;;;;;;;;45.03;13.71;101353.00;5052449;28;19924;-62
2022/10/09 09:24:33;;;;;;;;;;;;;;;45.90;13.14;101352.88;5052439;28;19921;-62
2022/10/09 09:27:02;;;;;;;;;;;;;;;45.68;13.39;101356.94;5052202;28;19925;-62
2022/10/09 09:29:34;;;;;;;;;;;;;;;45.51;13.51;101341.47;5051348;28;19924;-62
2022/10/09 09:32:01;;;;;;;;;;;;;;;45.54;13.45;101351.94;5052281;28;20298;-62
2022/10/09 09:34:37;;;;;;;;;;;;;;;45.64;12.95;101344.06;5052172;28;20042;-62
2022/10/09 09:37:03;;;;;;;;;;;;;;;46.12;12.70;101344.63;5052257;27;19927;-63
2022/10/09 09:39:33;;;;;;;;;;;;;;;46.32;12.46;101341.03;5052071;28;19924;-62
2022/10/09 09:42:01;;;;;;;;;;;;;;;44.92;13.47;101334.78;5051936;28;20011;-63
2022/10/09 09:44:30;;;;;;;;;;;;;;;45.48;13.34;101325.22;5051929;28;19916;-63
2022/10/09 09:46:56;;;;;;;;;;;;;;;45.56;12.63;101335.00;5051845;28;19921;-62
2022/10/09 09:49:26;;;;;;;;;;;;;;;44.72;13.71;101327.56;5051842;28;20294;-63
2022/10/09 09:51:54;;;;;;;;;;;;;;;45.24;13.41;101325.25;5050809;28;19920;-62
2022/10/09 09:54:24;;;;;;;;;;;;;;;45.52;12.65;101325.81;5051780;28;19921;-62
2022/10/09 09:56:52;;;;;;;;;;;;;;;45.82;12.11;101331.59;5052004;28;19924;-62
2022/10/09 09:59:25;;;;;;;;;;;;;;;46.70;12.23;101319.13;5051008;28;19920;-63
2022/10/09 10:02:01;;;;;;;;;;;;;;;46.75;11.92;101316.28;5051762;28;20362;-62
2022/10/09 10:04:27;;;;;;;;;;;;;;;46.72;11.92;101322.28;5051774;28;19920;-62
2022/10/09 10:06:54;;;;;;;;;;;;;;;47.17;11.51;101321.56;5050508;28;19921;-62
2022/10/09 10:09:20;;;;;;;;;;;;;;;47.01;11.68;101332.84;5051248;28;20015;-62
2022/10/09 10:12:02;;;;;;;;;;;;;;;47.31;11.42;101328.50;5044242;28;19970;-62
2022/10/09 10:14:29;;;;;;;;;;;;;;;47.36;11.38;101336.41;5050769;28;20003;-62
2022/10/09 10:16:56;;;;;;;;;;;;;;;47.20;11.33;101346.44;5051435;27;19921;-62
2022/10/09 10:19:24;;;;;;;;;;;;;;;47.38;11.54;101356.84;5050355;28;19942;-62
2022/10/09 10:21:55;;;;;;;;;;;;;;;47.27;11.62;101355.97;5051051;27;19917;-63
2022/10/09 10:24:26;;;;;;;;;;;;;;;47.36;11.38;101359.44;5057671;27;19971;-62
2022/10/09 10:27:01;;;;;;;;;;;;;;;47.55;11.17;101360.72;5087183;27;19924;-61
2022/10/09 10:29:28;;;;;;;;;;;;;;;47.38;11.23;101356.84;5080853;27;20374;-61
2022/10/09 10:32:09;;;;;;;;;;;;;;;46.12;12.16;101367.63;5086540;27;20378;-61
2022/10/09 10:34:42;;;;;;;;;;;;;;;45.70;12.24;101371.59;5080944;27;19923;-61
2022/10/09 10:37:14;;;;;;;;;;;;;;;45.78;12.36;101360.50;5094309;27;19923;-60
2022/10/09 10:39:44;;;;;;;;;;;;;;;46.70;12.28;101357.31;5086988;27;19927;-62
2022/10/09 10:42:14;;;;;;;;;;;;;;;46.89;11.39;101361.50;5085772;27;19922;-64
2022/10/09 10:44:46;;;;;;;;;;;;;;;47.01;11.58;101373.16;5132211;27;19923;-63
2022/10/09 10:47:21;;;;;;;;;;;;;;;46.12;12.14;101375.47;5062447;27;19921;-63
2022/10/09 10:49:47;;;;;;;;;;;;;;;45.93;12.38;101375.66;5051746;28;19924;-63
2022/10/09 10:52:22;;;;;;;;;;;;;;;46.08;12.68;101361.31;5051115;28;19974;-62
2022/10/09 10:54:56;;;;;;;;;;;;;;;46.00;12.32;101355.16;5050467;28;20447;-62
2022/10/09 10:57:28;;;;;;;;;;;;;;;45.26;13.42;101362.13;5050739;28;19916;-62
2022/10/09 10:59:56;;;;;;;;;;;;;;;45.45;12.72;101367.19;5050725;28;19920;-63
2022/10/09 11:02:44;;;;;;;;;;;;;;;45.26;12.96;101370.75;5050000;28;19913;-62
2022/10/09 11:05:11;;;;;;;;;;;;;;;45.57;12.81;101376.81;5030213;28;19921;-62
2022/10/09 11:07:43;;;;;;;;;;;;;;;45.43;13.46;101374.72;5049778;28;20003;-62
2022/10/09 11:10:12;;;;;;;;;;;;;;;45.10;13.92;101369.06;5051126;28;20282;-62
2022/10/09 11:12:38;;;;;;;;;;;;;;;44.99;13.88;101372.50;5050816;28;19913;-62
2022/10/09 11:15:05;;;;;;;;;;;;;;;44.68;14.33;101378.56;5050741;28;20011;-62
2022/10/09 11:17:34;;;;;;;;;;;;;;;44.87;13.71;101376.41;5050763;28;19913;-63
2022/10/09 11:20:13;;;;;;;;;;;;;;;45.15;13.61;101374.13;5050908;28;19920;-63
2022/10/09 11:22:58;;;;;;;;;;;;;;;44.78;13.97;101380.09;5050561;28;20016;-63
2022/10/09 11:25:44;;;;;;;;;;;;;;;44.74;14.62;101367.25;5050868;28;19921;-62
2022/10/09 11:28:13;;;;;;;;;;;;;;;45.38;13.40;101372.53;5050612;28;19920;-63
2022/10/09 11:30:49;;;;;;;;;;;;;;;45.49;13.71;101367.00;5050461;28;20004;-62
2022/10/09 11:33:28;;;;;;;;;;;;;;;45.56;13.22;101371.56;5050604;28;19924;-62
2022/10/09 11:36:04;;;;;;;;;;;;;;;45.65;13.38;101375.19;5049571;28;19928;-62
2022/10/09 11:38:50;;;;;;;;;;;;;;;45.47;13.82;101367.50;5050543;28;19921;-62
2022/10/09 11:41:17;;;;;;;;;;;;;;;45.53;13.33;101379.09;5050535;28;19927;-62
2022/10/09 11:43:51;;;;;;;;;;;;;;;45.61;13.44;101377.44;5049392;28;19981;-63
2022/10/09 11:46:24;;;;;;;;;;;;;;;45.62;13.15;101376.13;5050387;28;19928;-62
2022/10/09 11:48:53;;;;;;;;;;;;;;;45.52;13.18;101389.00;5050388;28;19981;-63
2022/10/09 11:51:32;;;;;;;;;;;;;;;45.56;13.44;101386.72;5050304;28;19935;-63
2022/10/09 11:53:59;;;;;;;;;;;;;;;45.57;13.51;101399.78;5050330;28;20302;-63
2022/10/09 11:56:26;;;;;;;;;;;;;;;45.57;13.66;101388.28;5050302;28;19923;-62
2022/10/09 11:58:56;;;;;;;;;;;;;;;45.56;14.07;101406.03;5050459;28;20003;-62
2022/10/09 12:01:24;;;;;;;;;;;;;;;45.50;13.67;101391.56;5050351;28;20062;-62
2022/10/09 12:04:17;;;;;;;;;;;;;;;45.48;13.81;101399.88;5050285;28;19925;-63
2022/10/09 12:06:50;;;;;;;;;;;;;;;45.09;13.68;101401.94;5048518;28;19928;-62
2022/10/09 12:09:38;;;;;;;;;;;;;;;45.10;13.67;101406.38;5050379;28;20294;-63
2022/10/09 12:12:07;;;;;;;;;;;;;;;45.22;13.82;101404.53;5050084;28;19952;-63
2022/10/09 12:14:35;;;;;;;;;;;;;;;45.30;14.05;101400.84;5050032;28;20003;-62
2022/10/09 12:17:13;;;;;;;;;;;;;;;45.30;13.57;101405.78;5049740;28;20031;-62
2022/10/09 12:19:41;;;;;;;;;;;;;;;45.30;14.19;101397.16;5049789;28;19917;-63
2022/10/09 12:22:13;;;;;;;;;;;;;;;45.20;14.41;101405.81;5049860;28;19920;-63
2022/10/09 12:24:41;;;;;;;;;;;;;;;45.25;14.00;101403.53;5049558;28;20385;-62
2022/10/09 12:27:13;;;;;;;;;;;;;;;44.94;14.01;101413.34;5049562;28;19935;-63
2022/10/09 12:29:43;;;;;;;;;;;;;;;44.69;14.57;101413.78;5049960;28;20263;-63
2022/10/09 12:32:39;;;;;;;;;;;;;;;44.80;13.97;101414.03;5049688;28;19921;-63
2022/10/09 12:35:25;;;;;;;;;;;;;;;44.98;14.31;101413.94;5040694;28;19927;-62
2022/10/09 12:37:52;;;;;;;;;;;;;;;44.70;14.40;101429.69;5048265;28;20343;-62
2022/10/09 12:40:25;;;;;;;;;;;;;;;44.67;14.69;101427.81;5049534;28;20007;-62
2022/10/09 12:42:52;;;;;;;;;;;;;;;44.67;14.76;101433.53;5050372;28;19920;-62
2022/10/09 12:45:20;;;;;;;;;;;;;;;44.78;14.14;101433.81;5053001;28;19924;-62
2022/10/09 12:47:47;;;;;;;;;;;;;;;44.58;14.53;101440.94;5053107;28;19948;-63
2022/10/09 12:50:16;;;;;;;;;;;;;;;44.65;14.28;101436.91;5052882;28;19921;-62